Alborn, Minnesota
Current Conditions -  °F | °C
As of 1:36 PM on Thursday 30 Oct 2014 (Local Time) from KCOQ Reporting Station
Overcast Overcast  
Wind Chill: 35°   Ceiling: 2400
Heat Index: 41°   Visibility: 10mi
Dew Point: 30°   Wind: 10mph
Humidity: 65%   Direction: 300°WNW
Pressure: 30.09"   Gusts: NA
Location:  46.97°N, 92.58°W
Report Text: KCOQ 301836Z AUTO 30009KT 10SM OVC024 05/M01 A3009 RMK AO2
Loading
Personal Weather Stations






























Interactive Weather Map
Tropical Storm Tracking
New forecast layout! Learn more

10-Day Weather Forecast

Advertisements
Track Severe Weather on mobile